aviador You're here:

CYYG Decoded Metar

CHARLOTTETOWN in PE, CANADA
Report Time2018-01-23 03:00:00
UTC Time2018-01-23 04:03:12
Flight Rules vfr VFR
Wind150° at 03 kt
W.Decomp.*RWY 21: 2.3 kt HW 1.9 kt LCW
RWY 10: 1.0 kt HW 2.8 kt RCW
W.Rank150° ranks 22
Current wind is below 150° avg. (9.8)
Visibility9999 m
Phenomena:N/A
Clouds:Scattered 250 Hf
Expected CloudBase > 2,000 ft AGL from Temp-Dew spread
CeilingNone
Temp-16°C (ISA -31)
Dew Point-21°C (66% RH)
AAT-20.7°C
QNH1030 hPa
Density Alt-4,278 ft
Elevation177 ft
Report Wrong Elevation
Raw Report
CYYG 230300Z 15003KT 15SM SCT250 M16/M21 A3042 RMK CI3 SLP306=

Extra information for CYYG:More info

Metar Taf Metar & Taf Last 4 Metars F.Rules Stats Wind Profile Meteogram Temp Stats Airport Information Weather charts Add Link Nearby VenuesMetar ALERT Operation Metar Decoded Social comments